Time;durP1;ratioP1;P1;durP2;ratioP2;P2;SDS_P1;SDS_P2;PMS_P1;PMS_P2;Temp;Humidity;BMP_temperature;BMP_pressure;BME280_temperature;BME280_humidity;BME280_pressure;Samples;Min_cycle;Max_cycle;Signal;HPM_P1;HPM_P2
2021/12/01 00:02:44;;;;;;;10.85;6.75;;;;;;;0.11;88.77;98485.84;1695062;84;21752;-78
2021/12/01 00:05:50;;;;;;;11.20;6.58;;;;;;;0.09;89.10;98483.29;1694382;84;21168;-78
2021/12/01 00:08:55;;;;;;;9.93;6.90;;;;;;;0.04;89.53;98484.25;1694972;84;21856;-79
2021/12/01 00:12:02;;;;;;;9.78;7.03;;;;;;;0.02;89.82;98489.45;1694034;84;21314;-78
2021/12/01 00:15:08;;;;;;;15.18;6.33;;;;;;;-0.02;89.97;98492.44;1694223;84;21329;-81
2021/12/01 00:18:14;;;;;;;16.62;6.80;;;;;;;-0.04;90.11;98485.05;1693872;84;21252;-84
2021/12/01 00:21:20;;;;;;;9.60;6.95;;;;;;;-0.04;90.24;98490.92;1693819;84;21347;-78
2021/12/01 00:24:27;;;;;;;9.65;6.58;;;;;;;-0.06;90.38;98484.83;1694672;84;21898;-78
2021/12/01 00:27:32;;;;;;;12.00;7.72;;;;;;;-0.09;90.59;98490.53;1693872;84;21266;-78
2021/12/01 00:30:40;;;;;;;11.53;7.65;;;;;;;-0.12;90.85;98500.23;1693987;84;21828;-78
2021/12/01 00:33:48;;;;;;;13.35;7.87;;;;;;;-0.16;91.08;98486.75;1695073;84;21228;-84
2021/12/01 00:36:54;;;;;;;14.25;7.97;;;;;;;-0.17;91.25;98489.95;1695271;84;21315;-84
2021/12/01 00:39:58;;;;;;;13.10;7.95;;;;;;;-0.15;91.42;98492.47;1695183;84;21334;-84
2021/12/01 00:43:03;;;;;;;13.90;8.03;;;;;;;-0.15;91.63;98491.13;1701569;83;21218;-77
2021/12/01 00:46:19;;;;;;;11.80;7.75;;;;;;;-0.17;91.88;98487.76;1747942;82;21323;-84
2021/12/01 00:49:20;;;;;;;14.60;8.73;;;;;;;-0.18;92.20;98496.83;1714790;83;21193;-78
2021/12/01 00:52:27;;;;;;;10.30;7.20;;;;;;;-0.20;92.46;98494.77;1716252;83;21280;-80
2021/12/01 00:55:32;;;;;;;17.40;7.95;;;;;;;-0.18;92.67;98488.77;1715881;83;21221;-84
2021/12/01 00:58:38;;;;;;;11.97;8.40;;;;;;;-0.19;92.80;98495.95;1715855;83;21189;-84
2021/12/01 01:01:44;;;;;;;12.37;7.92;;;;;;;-0.19;92.89;98487.89;1716032;83;21264;-78
2021/12/01 01:04:51;;;;;;;10.65;8.20;;;;;;;-0.22;92.97;98482.84;1726972;83;21241;-78
2021/12/01 01:07:58;;;;;;;12.20;7.95;;;;;;;-0.25;93.14;98485.82;1727157;83;21307;-78
2021/12/01 01:17:48;;;;;;;12.18;8.10;;;;;;;-0.34;93.49;98487.58;1727420;83;21747;-82
2021/12/01 01:20:45;;;;;;;10.43;7.65;;;;;;;-0.37;93.61;98491.92;1748103;82;21310;-84
2021/12/01 01:23:50;;;;;;;13.03;8.15;;;;;;;-0.37;93.73;98487.05;1749429;82;21729;-78
2021/12/01 01:26:56;;;;;;;9.85;7.35;;;;;;;-0.37;93.88;98494.61;1715470;83;21383;-83
2021/12/01 01:30:01;;;;;;;14.10;9.28;;;;;;;-0.36;94.02;98484.70;1715312;83;21347;-77
2021/12/01 01:33:07;;;;;;;14.35;9.48;;;;;;;-0.39;94.13;98490.38;1728539;83;21739;-78
2021/12/01 01:36:13;;;;;;;9.25;7.42;;;;;;;-0.41;94.28;98491.87;1728280;83;21308;-78
2021/12/01 01:39:18;;;;;;;11.35;7.87;;;;;;;-0.40;94.43;98502.96;1727128;83;21347;-84
2021/12/01 01:42:23;;;;;;;11.28;8.03;;;;;;;-0.40;94.58;98500.28;1748192;82;21300;-78
2021/12/01 01:45:29;;;;;;;14.45;8.65;;;;;;;-0.40;94.69;98500.28;1748208;80;21302;-84
2021/12/01 01:48:45;;;;;;;14.33;9.05;;;;;;;-0.40;94.79;98504.30;1749582;82;21216;-84
2021/12/01 01:51:43;;;;;;;10.70;7.95;;;;;;;-0.40;94.84;98502.96;1716132;83;21257;-78
2021/12/01 01:54:49;;;;;;;12.25;9.23;;;;;;;-0.39;94.88;98512.70;1748788;82;21216;-84
2021/12/01 01:57:56;;;;;;;12.53;8.53;;;;;;;-0.39;94.94;98510.52;1748377;82;22242;-84
2021/12/01 02:01:11;;;;;;;14.58;8.93;;;;;;;-0.37;95.13;98525.51;1749333;82;21339;-84
2021/12/01 02:04:18;;;;;;;14.55;9.83;;;;;;;-0.35;95.16;98530.22;1715759;83;21356;-77
2021/12/01 02:07:24;;;;;;;13.32;9.38;;;;;;;-0.32;94.98;98537.98;1715528;83;21825;-83
2021/12/01 02:10:30;;;;;;;15.32;9.80;;;;;;;-0.33;94.91;98533.62;1748110;82;21382;-84
2021/12/01 02:13:36;;;;;;;17.45;10.23;;;;;;;-0.31;94.93;98524.05;1748766;82;21188;-84
2021/12/01 02:16:42;;;;;;;17.42;11.73;;;;;;;-0.30;94.79;98528.42;1749211;82;21307;-78
2021/12/01 02:19:48;;;;;;;17.75;11.85;;;;;;;-0.30;94.64;98531.11;1748083;82;21326;-84
2021/12/01 02:22:54;;;;;;;24.92;13.15;;;;;;;-0.28;94.45;98538.54;1748093;82;21283;-84
2021/12/01 02:26:00;;;;;;;17.98;13.05;;;;;;;-0.29;94.31;98543.04;1749469;82;21604;-78
2021/12/01 02:29:08;;;;;;;28.52;14.75;;;;;;;-0.30;94.16;98548.58;1748763;82;21749;-78
2021/12/01 02:32:14;;;;;;;20.27;13.78;;;;;;;-0.32;94.02;98555.45;1749595;82;21208;-78
2021/12/01 02:35:20;;;;;;;22.25;13.83;;;;;;;-0.30;93.95;98553.95;1749589;82;21272;-84
2021/12/01 02:38:25;;;;;;;21.60;14.58;;;;;;;-0.30;93.80;98556.13;1747934;82;21342;-83
2021/12/01 02:41:37;;;;;;;21.17;14.25;;;;;;;-0.31;93.67;98561.66;1749385;82;21204;-79
2021/12/01 02:44:42;;;;;;;25.70;15.48;;;;;;;-0.31;93.58;98558.98;1748501;81;21283;-84
2021/12/01 02:47:48;;;;;;;23.67;15.72;;;;;;;-0.34;93.43;98564.14;1725354;83;21292;-79
2021/12/01 02:50:54;;;;;;;26.90;15.35;;;;;;;-0.35;93.42;98556.24;1693928;85;21208;-80
2021/12/01 02:53:59;;;;;;;21.35;15.60;;;;;;;-0.36;93.42;98566.14;1693965;85;21358;-77
2021/12/01 02:57:04;;;;;;;28.02;17.90;;;;;;;-0.36;93.33;98562.62;1693722;85;21320;-79
2021/12/01 03:00:09;;;;;;;27.45;19.32;;;;;;;-0.39;93.19;98569.63;1693843;85;21856;-83
2021/12/01 03:03:15;;;;;;;29.25;17.85;;;;;;;-0.38;93.17;98580.70;1693767;85;21292;-77
2021/12/01 03:06:20;;;;;;;28.55;17.12;;;;;;;-0.37;93.07;98579.23;1693748;85;21717;-79
2021/12/01 03:09:26;;;;;;;31.37;18.27;;;;;;;-0.35;92.92;98583.95;1693177;85;21323;-77
2021/12/01 03:12:37;;;;;;;28.17;16.37;;;;;;;-0.33;92.79;98590.51;1693733;85;21902;-83
2021/12/01 03:15:43;;;;;;;26.68;15.18;;;;;;;-0.36;92.64;98591.67;1693298;85;21726;-84
2021/12/01 03:18:51;;;;;;;23.12;14.23;;;;;;;-0.39;92.50;98598.67;1692747;85;21193;-83
2021/12/01 03:21:56;;;;;;;21.17;15.03;;;;;;;-0.41;92.43;98597.98;1692287;85;21344;-84
2021/12/01 03:25:03;;;;;;;25.52;15.60;;;;;;;-0.43;92.36;98599.95;1692407;84;21220;-84
2021/12/01 03:28:10;;;;;;;23.30;15.45;;;;;;;-0.43;92.26;98593.74;1692981;85;21183;-84
2021/12/01 03:31:16;;;;;;;23.83;14.33;;;;;;;-0.45;92.25;98587.69;1693632;85;21287;-78
2021/12/01 03:34:21;;;;;;;21.82;14.23;;;;;;;-0.46;92.16;98581.47;1693353;85;21757;-78
2021/12/01 03:37:28;;;;;;;23.67;13.38;;;;;;;-0.47;92.10;98594.56;1678402;85;21343;-78
2021/12/01 03:40:34;;;;;;;22.60;14.83;;;;;;;-0.47;92.01;98593.22;1692385;85;21338;-84
2021/12/01 03:43:40;;;;;;;25.27;15.75;;;;;;;-0.47;91.97;98594.56;1693634;85;21308;-85
2021/12/01 03:46:46;;;;;;;26.20;15.93;;;;;;;-0.47;91.82;98593.22;1710016;82;21314;-85
2021/12/01 03:49:52;;;;;;;23.25;15.63;;;;;;;-0.50;91.58;98594.00;1735243;82;21348;-79
2021/12/01 03:52:57;;;;;;;25.20;15.03;;;;;;;-0.56;91.40;98594.95;1736411;82;21193;-84
2021/12/01 03:56:04;;;;;;;22.13;15.15;;;;;;;-0.57;91.54;98605.31;1735128;82;21273;-84
2021/12/01 03:59:12;;;;;;;24.00;15.95;;;;;;;-0.56;91.72;98611.06;1735678;82;21292;-78
2021/12/01 04:02:18;;;;;;;25.95;15.28;;;;;;;-0.56;91.50;98620.95;1736733;82;21165;-84
2021/12/01 04:05:25;;;;;;;22.90;13.98;;;;;;;-0.58;91.49;98624.27;1729263;83;21307;-83
2021/12/01 04:08:32;;;;;;;22.50;14.30;;;;;;;-0.58;91.38;98621.58;1728807;83;21291;-78
2021/12/01 04:11:39;;;;;;;26.68;14.63;;;;;;;-0.65;91.06;98625.36;1728194;83;21180;-78
2021/12/01 04:14:45;;;;;;;20.95;13.65;;;;;;;-0.75;90.99;98625.02;1728722;83;21258;-78
2021/12/01 04:17:52;;;;;;;19.70;13.25;;;;;;;-0.83;91.13;98623.08;1728367;83;21282;-81
2021/12/01 04:20:57;;;;;;;19.98;12.30;;;;;;;-0.92;91.17;98628.82;1727875;83;21160;-77
2021/12/01 04:24:03;;;;;;;16.10;10.60;;;;;;;-1.01;91.35;98631.52;1727543;83;21338;-83
2021/12/01 04:27:02;;;;;;;17.15;11.18;;;;;;;-1.08;91.73;98632.11;1721218;83;21298;-77
2021/12/01 04:30:08;;;;;;;18.00;10.48;;;;;;;-1.16;92.05;98641.86;1729086;82;21303;-84
2021/12/01 04:33:14;;;;;;;19.50;10.08;;;;;;;-1.20;92.41;98648.50;1700224;84;21217;-83
2021/12/01 04:36:21;;;;;;;15.35;10.55;;;;;;;-1.24;92.65;98644.40;1698953;84;21751;-77
2021/12/01 04:39:27;;;;;;;17.35;11.48;;;;;;;-1.31;92.82;98646.31;1700607;83;21301;-76
2021/12/01 04:42:32;;;;;;;20.80;12.55;;;;;;;-1.38;93.03;98645.67;1729847;83;21283;-82
2021/12/01 04:45:41;;;;;;;18.35;12.05;;;;;;;-1.44;93.45;98643.06;1729333;83;21689;-77
2021/12/01 04:48:44;;;;;;;26.55;13.68;;;;;;;-1.49;93.82;98643.98;1747001;80;21319;-77
2021/12/01 04:51:52;;;;;;;31.35;14.05;;;;;;;-1.52;94.22;98650.11;1767483;81;21240;-77
2021/12/01 04:54:58;;;;;;;19.57;12.98;;;;;;;-1.58;94.59;98652.87;1767846;81;21837;-77
2021/12/01 04:58:04;;;;;;;27.80;15.25;;;;;;;-1.61;94.99;98647.77;1767714;81;21185;-76
2021/12/01 05:01:10;;;;;;;26.85;15.15;;;;;;;-1.63;95.26;98653.29;1736249;81;21347;-83
2021/12/01 05:04:16;;;;;;;27.77;14.75;;;;;;;-1.67;95.43;98660.41;1746974;80;21315;-77
2021/12/01 05:07:23;;;;;;;25.95;14.78;;;;;;;-1.67;95.63;98664.42;1743727;82;21472;-79
2021/12/01 05:10:28;;;;;;;30.30;16.20;;;;;;;-1.72;95.82;98667.52;1749888;80;21219;-84
2021/12/01 05:13:34;;;;;;;26.10;16.48;;;;;;;-1.74;96.14;98672.19;1753552;81;21172;-78
2021/12/01 05:16:41;;;;;;;22.75;14.63;;;;;;;-1.72;96.45;98676.06;1769571;81;21180;-78
2021/12/01 05:19:47;;;;;;;21.50;13.58;;;;;;;-1.69;96.66;98675.30;1769337;81;21353;-77
2021/12/01 05:22:52;;;;;;;21.60;12.23;;;;;;;-1.70;96.76;98669.56;1770078;81;21338;-78
2021/12/01 05:25:58;;;;;;;19.05;11.88;;;;;;;-1.68;97.01;98676.14;1770146;81;21268;-78
2021/12/01 05:29:04;;;;;;;18.35;12.45;;;;;;;-1.64;97.24;98673.55;1769595;81;21322;-78
2021/12/01 05:32:10;;;;;;;17.87;10.35;;;;;;;-1.59;97.46;98676.16;1754581;81;21145;-84
2021/12/01 05:35:16;;;;;;;15.63;10.18;;;;;;;-1.52;97.69;98677.77;1767477;80;21311;-77
2021/12/01 05:38:22;;;;;;;15.25;10.03;;;;;;;-1.44;97.80;98677.93;1764507;80;21303;-78
2021/12/01 05:41:29;;;;;;;22.80;12.63;;;;;;;-1.37;97.86;98684.41;1762491;80;21255;-77
2021/12/01 05:44:35;;;;;;;22.70;12.73;;;;;;;-1.30;97.89;98678.01;1758397;80;21269;-83
2021/12/01 05:47:40;;;;;;;19.07;11.90;;;;;;;-1.23;97.88;98689.02;1742351;80;21337;-76
2021/12/01 05:50:46;;;;;;;17.98;11.50;;;;;;;-1.17;97.90;98679.08;1727713;81;21764;-84
2021/12/01 05:53:51;;;;;;;20.15;11.73;;;;;;;-1.07;97.91;98675.89;1736542;81;21326;-78
2021/12/01 05:56:56;;;;;;;19.70;9.78;;;;;;;-0.96;97.83;98680.25;1735186;81;21292;-83
2021/12/01 06:00:04;;;;;;;15.08;10.10;;;;;;;-0.84;97.69;98681.30;1736056;81;21240;-82
2021/12/01 06:03:12;;;;;;;19.87;11.12;;;;;;;-0.74;97.18;98677.75;1732159;82;21553;-78
2021/12/01 06:06:19;;;;;;;16.52;9.80;;;;;;;-0.67;96.73;98671.64;1730027;81;21293;-78
2021/12/01 06:09:25;;;;;;;15.65;9.93;;;;;;;-0.59;96.36;98672.27;1728181;82;21200;-77
2021/12/01 06:12:30;;;;;;;15.03;9.73;;;;;;;-0.54;95.93;98679.39;1731380;81;21280;-83
2021/12/01 06:15:36;;;;;;;22.27;11.80;;;;;;;-0.49;95.45;98676.27;1732175;81;21575;-84
2021/12/01 06:18:41;;;;;;;16.32;9.88;;;;;;;-0.49;94.85;98684.33;1726794;81;21172;-77
2021/12/01 06:21:47;;;;;;;14.98;10.30;;;;;;;-0.46;94.50;98687.58;1723164;81;21222;-84
2021/12/01 06:24:53;;;;;;;16.20;10.30;;;;;;;-0.37;94.32;98682.67;1689220;83;21758;-84
2021/12/01 06:27:58;;;;;;;13.93;9.33;;;;;;;-0.29;94.24;98677.39;1685288;82;21820;-77
2021/12/01 06:31:04;;;;;;;15.80;10.38;;;;;;;-0.15;94.17;98673.88;1724768;81;21579;-77
2021/12/01 06:34:10;;;;;;;22.52;11.95;;;;;;;-0.05;93.81;98671.98;1721928;82;21329;-77
2021/12/01 06:37:22;;;;;;;18.87;10.60;;;;;;;0.04;93.56;98675.12;1724758;81;22437;-76
2021/12/01 06:40:26;;;;;;;17.25;11.05;;;;;;;0.17;93.04;98672.09;1725826;81;21236;-77
2021/12/01 06:43:31;;;;;;;18.75;12.25;;;;;;;0.30;92.60;98673.08;1723223;81;21927;-77
2021/12/01 06:46:39;;;;;;;20.62;12.03;;;;;;;0.35;92.05;98672.97;1729413;81;21716;-78
2021/12/01 06:49:45;;;;;;;19.12;10.93;;;;;;;0.50;91.98;98673.30;1728556;80;21316;-77
2021/12/01 06:52:52;;;;;;;17.25;11.63;;;;;;;0.63;91.56;98661.66;1720429;81;21300;-77
2021/12/01 06:55:57;;;;;;;17.32;10.80;;;;;;;0.70;90.63;98662.72;1726977;81;21340;-77
2021/12/01 06:59:03;;;;;;;28.12;13.65;;;;;;;0.73;90.10;98657.05;1726626;81;22256;-77
2021/12/01 07:02:08;;;;;;;24.10;12.30;;;;;;;0.70;89.51;98653.81;1701067;83;21189;-77
2021/12/01 07:05:13;;;;;;;21.52;12.07;;;;;;;0.70;89.53;98655.99;1724432;81;21849;-79
2021/12/01 07:08:24;;;;;;;21.07;12.03;;;;;;;0.72;89.42;98651.83;1697588;83;21339;-85
2021/12/01 07:11:34;;;;;;;20.70;11.40;;;;;;;0.78;89.23;98655.73;1715755;81;21311;-77
2021/12/01 07:14:39;;;;;;;27.55;12.25;;;;;;;0.85;89.25;98664.40;1724735;81;21631;-78
2021/12/01 07:17:46;;;;;;;18.95;11.50;;;;;;;0.93;88.99;98663.61;1716088;79;61883;-78
2021/12/01 07:20:50;;;;;;;21.73;11.30;;;;;;;0.96;88.70;98664.15;1763060;80;22465;-77
2021/12/01 07:23:56;;;;;;;20.50;12.40;;;;;;;0.98;88.68;98658.59;1764543;79;21290;-77
2021/12/01 07:27:08;;;;;;;34.75;16.80;;;;;;;1.02;88.48;98661.33;1725110;82;22186;-81
2021/12/01 07:30:18;;;;;;;24.92;13.85;;;;;;;1.04;88.44;98656.65;1706766;83;21551;-78
2021/12/01 07:33:18;;;;;;;20.05;11.78;;;;;;;1.15;88.67;98667.16;1757725;81;21438;-78
2021/12/01 07:36:25;;;;;;;20.72;11.90;;;;;;;1.23;88.50;98659.66;1756975;79;21311;-79
2021/12/01 07:39:31;;;;;;;19.95;10.40;;;;;;;1.24;88.43;98654.61;1763161;81;22154;-79
2021/12/01 07:42:38;;;;;;;20.55;11.70;;;;;;;1.31;88.52;98656.16;1760835;81;21473;-76
2021/12/01 07:45:44;;;;;;;24.12;10.18;;;;;;;1.33;88.51;98655.01;1729414;79;21961;-79
2021/12/01 07:48:51;;;;;;;16.35;11.28;;;;;;;1.35;88.87;98651.64;1731092;82;21319;-80
2021/12/01 07:51:59;;;;;;;17.60;10.43;;;;;;;1.35;89.32;98654.84;1730909;81;21208;-79
2021/12/01 07:55:05;;;;;;;16.70;9.25;;;;;;;1.40;89.92;98649.31;1703243;82;21207;-78
2021/12/01 08:00:46;;;;;;;14.25;9.85;;;;;;;1.52;90.46;98656.65;1847681;76;28217;-78
2021/12/01 08:03:52;;;;;;;12.55;8.60;;;;;;;1.53;90.56;98660.52;1818312;77;21306;-79
2021/12/01 08:06:57;;;;;;;13.40;8.50;;;;;;;1.56;90.65;98655.84;1817461;77;21345;-78
2021/12/01 08:10:05;;;;;;;12.37;7.65;;;;;;;1.62;90.74;98653.34;1814300;77;21291;-79
2021/12/01 08:13:13;;;;;;;11.45;8.08;;;;;;;1.71;90.64;98648.33;1777042;77;21140;-80
2021/12/01 08:16:21;;;;;;;21.15;11.83;;;;;;;1.87;90.58;98637.28;1788724;77;21866;-80
2021/12/01 08:19:23;;;;;;;17.60;10.72;;;;;;;1.97;89.71;98636.14;1737526;80;21759;-79
2021/12/01 08:22:18;;;;;;;16.40;8.80;;;;;;;2.03;89.09;98626.07;1738853;80;21306;-78
2021/12/01 08:25:24;;;;;;;8.90;6.03;;;;;;;2.06;87.65;98620.84;1763002;80;21168;-78
2021/12/01 08:28:32;;;;;;;10.68;6.55;;;;;;;2.06;86.96;98619.48;1766103;80;21212;-79
2021/12/01 08:31:40;;;;;;;14.60;6.85;;;;;;;2.10;86.98;98620.86;1753515;80;21350;-79
2021/12/01 08:34:51;;;;;;;13.60;8.33;;;;;;;2.19;86.95;98615.83;1754696;80;21393;-78
2021/12/01 08:38:00;;;;;;;16.87;8.23;;;;;;;2.29;86.24;98623.78;1751878;80;21185;-79
2021/12/01 08:41:05;;;;;;;9.85;7.17;;;;;;;2.37;85.78;98614.87;1746577;80;21197;-79
2021/12/01 08:44:11;;;;;;;11.88;6.83;;;;;;;2.43;85.05;98615.55;1751349;80;21313;-79
2021/12/01 08:47:20;;;;;;;13.55;6.17;;;;;;;2.41;84.20;98611.67;1740972;81;21319;-81
2021/12/01 08:50:26;;;;;;;12.88;7.92;;;;;;;2.39;84.15;98614.19;1746830;81;21268;-82
2021/12/01 08:53:32;;;;;;;12.35;6.28;;;;;;;2.39;84.04;98607.44;1739057;81;21335;-83
2021/12/01 08:56:37;;;;;;;13.32;7.03;;;;;;;2.39;83.84;98615.02;1761850;80;21287;-79
2021/12/01 08:59:44;;;;;;;8.68;5.75;;;;;;;2.36;83.88;98612.67;1763837;80;22551;-77
2021/12/01 09:02:50;;;;;;;13.65;8.00;;;;;;;2.36;84.16;98599.70;1785147;79;21376;-80
2021/12/01 09:05:56;;;;;;;11.55;7.12;;;;;;;2.40;84.52;98591.58;1790267;79;21184;-80
2021/12/01 09:09:03;;;;;;;15.38;7.35;;;;;;;2.43;84.46;98592.61;1782449;78;21902;-82
2021/12/01 09:12:07;;;;;;;13.03;7.50;;;;;;;2.48;84.41;98584.86;1769764;78;21267;-82
2021/12/01 09:15:14;;;;;;;9.50;6.47;;;;;;;2.52;84.38;98583.52;1763134;79;21223;-79
2021/12/01 09:18:19;;;;;;;13.20;7.75;;;;;;;2.55;84.28;98585.89;1788302;78;21513;-78
2021/12/01 09:21:28;;;;;;;15.98;8.25;;;;;;;2.53;83.97;98576.59;1781908;79;21326;-80
2021/12/01 09:24:35;;;;;;;12.37;7.83;;;;;;;2.54;83.92;98567.98;1775159;79;21193;-80
2021/12/01 09:27:47;;;;;;;12.88;7.20;;;;;;;2.56;83.87;98574.91;1768309;79;21750;-80
2021/12/01 09:30:56;;;;;;;13.35;7.87;;;;;;;2.58;83.59;98581.99;1767636;79;21282;-81
2021/12/01 09:34:02;;;;;;;11.22;7.42;;;;;;;2.57;83.30;98571.70;1775883;79;21291;-81
2021/12/01 09:37:12;;;;;;;13.68;7.15;;;;;;;2.55;83.25;98574.58;1704603;81;21342;-80
2021/12/01 09:40:25;;;;;;;15.13;8.15;;;;;;;2.58;83.18;98572.04;1781180;79;22139;-80
2021/12/01 09:43:34;;;;;;;12.63;7.95;;;;;;;2.61;83.38;98578.46;1783052;79;21263;-79
2021/12/01 09:46:40;;;;;;;13.78;7.37;;;;;;;2.64;83.40;98576.79;1781750;78;21561;-80
2021/12/01 09:49:45;;;;;;;12.73;7.70;;;;;;;2.67;83.07;98575.59;1783065;78;21283;-80
2021/12/01 09:52:51;;;;;;;11.43;7.37;;;;;;;2.75;82.84;98578.30;1785088;78;21310;-81
2021/12/01 09:55:57;;;;;;;10.05;7.70;;;;;;;2.83;82.91;98577.47;1777823;79;21267;-80
2021/12/01 09:59:04;;;;;;;11.95;8.08;;;;;;;2.92;82.64;98576.45;1779943;79;21295;-77
2021/12/01 10:02:11;;;;;;;11.85;7.70;;;;;;;2.99;82.60;98564.78;1776917;79;21275;-80
2021/12/01 10:05:21;;;;;;;11.03;7.60;;;;;;;3.08;82.33;98565.11;1781817;78;21145;-80
2021/12/01 10:08:34;;;;;;;12.43;8.50;;;;;;;3.12;81.56;98571.02;1770517;79;22226;-80
2021/12/01 10:11:46;;;;;;;11.97;7.62;;;;;;;3.11;81.21;98573.39;1787865;79;21224;-79
2021/12/01 10:14:55;;;;;;;12.28;7.83;;;;;;;3.04;81.03;98565.11;1768268;79;21275;-79
2021/12/01 10:18:23;;;;;;;12.73;9.18;;;;;;;3.03;81.25;98562.59;1785841;79;21173;-79
2021/12/01 10:21:34;;;;;;;14.15;8.80;;;;;;;3.04;81.46;98561.56;1790205;79;22293;-78
2021/12/01 10:24:39;;;;;;;15.20;8.70;;;;;;;3.04;81.59;98557.52;1781396;79;21224;-80
2021/12/01 10:27:48;;;;;;;11.73;8.15;;;;;;;3.06;81.84;98557.70;1690460;82;21455;-80
2021/12/01 10:30:58;;;;;;;10.55;6.95;;;;;;;3.05;81.44;98550.58;1787309;79;21701;-80
2021/12/01 10:34:26;;;;;;;10.63;7.55;;;;;;;3.03;81.15;98545.87;1771697;79;21801;-79
2021/12/01 10:37:37;;;;;;;11.57;7.37;;;;;;;3.08;81.03;98549.41;1775908;78;21835;-78
2021/12/01 10:40:49;;;;;;;10.75;7.00;;;;;;;3.10;80.33;98551.42;1716985;79;21200;-78
2021/12/01 10:44:05;;;;;;;10.45;7.17;;;;;;;3.12;80.20;98544.00;1778041;79;21276;-79
2021/12/01 10:47:16;;;;;;;11.70;7.90;;;;;;;3.15;80.27;98536.05;1768407;79;21850;-78
2021/12/01 10:50:27;;;;;;;11.50;7.60;;;;;;;3.19;80.73;98531.48;1786863;79;21661;-80
2021/12/01 10:53:32;;;;;;;11.78;7.50;;;;;;;3.23;80.03;98533.33;1773196;79;21287;-78
2021/12/01 10:56:38;;;;;;;11.63;7.12;;;;;;;3.16;79.95;98531.84;1784976;79;21303;-78
2021/12/01 10:59:52;;;;;;;9.18;6.45;;;;;;;3.08;80.04;98531.85;1786405;79;21299;-78
2021/12/01 11:02:58;;;;;;;13.25;8.43;;;;;;;3.03;80.62;98526.12;1788668;78;21320;-79
2021/12/01 11:06:20;;;;;;;14.85;7.78;;;;;;;3.01;81.14;98518.68;1784689;78;21304;-79
2021/12/01 11:09:27;;;;;;;14.35;6.50;;;;;;;3.01;81.53;98523.61;1787409;79;22018;-78
2021/12/01 11:12:41;;;;;;;9.40;6.33;;;;;;;3.03;81.84;98515.32;1828414;76;22191;-78
2021/12/01 11:15:52;;;;;;;11.12;6.47;;;;;;;2.93;82.02;98521.42;1790753;77;21906;-76
2021/12/01 11:18:58;;;;;;;;;;;;;;;2.84;82.39;98521.09;1789806;79;21720;-78
2021/12/01 11:22:03;;;;;;;12.33;6.00;;;;;;;2.77;83.14;98520.40;1788302;79;20302;-78
2021/12/01 11:25:31;;;;;;;8.13;6.33;;;;;;;2.75;83.88;98522.44;1786062;77;21294;-77
2021/12/01 11:28:37;;;;;;;13.00;7.70;;;;;;;2.75;84.21;98517.04;1790642;79;21589;-77
2021/12/01 11:31:50;;;;;;;9.65;6.67;;;;;;;2.73;84.34;98521.78;1789376;77;21380;-76
2021/12/01 11:34:54;;;;;;;11.12;7.05;;;;;;;2.72;84.56;98526.82;1784690;77;21926;-76
2021/12/01 11:38:00;;;;;;;13.62;6.78;;;;;;;2.75;84.84;98529.19;1792979;79;21291;-77
2021/12/01 11:41:07;;;;;;;9.90;5.83;;;;;;;2.75;84.84;98529.70;1787083;79;21736;-76
2021/12/01 11:44:12;;;;;;;8.35;6.30;;;;;;;2.85;85.27;98526.82;1790168;79;21269;-77
2021/12/01 11:47:18;;;;;;;9.83;6.78;;;;;;;2.97;85.22;98527.66;1790176;79;22353;-77
2021/12/01 11:50:39;;;;;;;11.18;7.72;;;;;;;3.06;85.12;98537.44;1795334;77;21184;-77
2021/12/01 11:54:19;;;;;;;10.72;7.25;;;;;;;3.13;84.79;98535.39;1794862;79;21187;-76
2021/12/01 11:57:23;;;;;;;10.90;6.83;;;;;;;3.17;84.63;98540.27;1790213;79;21331;-77
2021/12/01 12:00:29;;;;;;;11.65;6.95;;;;;;;3.18;84.37;98543.81;1790952;77;21555;-77
2021/12/01 12:03:34;;;;;;;11.40;6.87;;;;;;;3.04;84.32;98549.41;1762566;79;21176;-76
2021/12/01 12:06:46;;;;;;;9.48;7.10;;;;;;;2.89;84.66;98549.78;1790903;79;21294;-77
2021/12/01 12:10:18;;;;;;;8.75;5.58;;;;;;;2.82;85.24;98549.59;1785756;79;21192;-79
2021/12/01 12:13:26;;;;;;;8.13;5.65;;;;;;;2.85;85.72;98551.97;1775857;78;22231;-78
2021/12/01 12:16:31;;;;;;;7.70;5.47;;;;;;;2.85;85.93;98557.36;1776361;79;21276;-76
2021/12/01 12:20:03;;;;;;;8.08;5.15;;;;;;;2.86;86.39;98562.26;1773299;79;21280;-76
2021/12/01 12:23:12;;;;;;;7.10;5.20;;;;;;;2.87;86.64;98564.81;1774209;79;21896;-77
2021/12/01 12:26:19;;;;;;;10.45;7.15;;;;;;;2.89;87.07;98571.38;1776319;79;21417;-77
2021/12/01 12:29:29;;;;;;;7.25;5.83;;;;;;;2.90;87.17;98564.96;1774636;78;21348;-77
2021/12/01 12:32:34;;;;;;;8.18;6.22;;;;;;;2.89;86.80;98573.57;1778928;79;21280;-77
2021/12/01 12:35:48;;;;;;;10.38;7.12;;;;;;;2.86;86.76;98571.70;1777994;79;21225;-77
2021/12/01 12:39:14;;;;;;;10.78;7.20;;;;;;;2.86;86.83;98577.95;1784000;79;21510;-78
2021/12/01 12:42:22;;;;;;;10.63;6.87;;;;;;;2.86;86.77;98586.56;1779656;79;21877;-77
2021/12/01 12:45:38;;;;;;;8.68;6.55;;;;;;;2.89;86.69;98585.72;1781666;79;21307;-78
2021/12/01 12:49:00;;;;;;;9.85;6.92;;;;;;;2.88;86.62;98577.30;1773896;79;21925;-78
2021/12/01 12:52:29;;;;;;;8.73;6.83;;;;;;;2.84;86.34;98585.39;1777587;79;21209;-76
2021/12/01 12:55:39;;;;;;;7.67;6.33;;;;;;;2.79;86.39;98581.84;1776823;79;21150;-77
2021/12/01 12:58:50;;;;;;;8.08;5.22;;;;;;;2.77;86.42;98596.00;1772898;79;21336;-76
2021/12/01 13:02:04;;;;;;;9.80;6.80;;;;;;;2.73;86.24;98594.68;1778355;79;21630;-77
2021/12/01 13:05:09;;;;;;;9.05;6.62;;;;;;;2.70;86.00;98599.56;1779546;79;21641;-77
2021/12/01 13:08:37;;;;;;;9.65;7.28;;;;;;;2.66;86.13;98596.34;1776182;79;21260;-77
2021/12/01 13:11:43;;;;;;;11.00;7.65;;;;;;;2.64;86.45;98607.83;1775580;79;21316;-83
2021/12/01 13:14:49;;;;;;;10.85;7.37;;;;;;;2.64;86.47;98606.99;1780700;78;21676;-82
2021/12/01 13:18:00;;;;;;;9.58;6.70;;;;;;;2.62;86.45;98612.53;1780081;79;21437;-82
2021/12/01 13:21:12;;;;;;;11.20;7.78;;;;;;;2.62;86.54;98610.34;1774590;79;21256;-82
2021/12/01 13:24:17;;;;;;;10.00;7.03;;;;;;;2.59;86.70;98616.06;1775247;79;21289;-76
2021/12/01 13:27:22;;;;;;;9.83;7.90;;;;;;;2.60;87.00;98628.07;1779108;79;21936;-77
2021/12/01 13:30:29;;;;;;;11.00;8.03;;;;;;;2.61;87.11;98630.26;1779337;79;21284;-76
2021/12/01 13:33:34;;;;;;;11.97;8.03;;;;;;;2.61;87.18;98633.80;1782027;79;21621;-83
2021/12/01 13:36:52;;;;;;;11.12;8.18;;;;;;;2.64;87.32;98639.39;1780421;79;21170;-77
2021/12/01 13:39:56;;;;;;;14.70;9.25;;;;;;;2.65;87.32;98650.52;1776484;79;21260;-83
2021/12/01 13:43:01;;;;;;;10.08;7.87;;;;;;;2.66;87.46;98655.73;1776125;79;21272;-83
2021/12/01 13:46:08;;;;;;;12.98;8.58;;;;;;;2.71;87.52;98658.78;1777715;79;21603;-85
2021/12/01 13:49:14;;;;;;;15.63;8.03;;;;;;;2.76;87.53;98656.94;1773891;79;21268;-77
2021/12/01 13:52:43;;;;;;;15.43;9.35;;;;;;;2.78;87.47;98658.47;1727216;82;21280;-77
2021/12/01 13:55:48;;;;;;;16.57;9.25;;;;;;;2.81;87.50;98656.77;1773175;79;21272;-77
2021/12/01 13:58:55;;;;;;;12.90;8.95;;;;;;;2.85;87.40;98657.80;1784814;79;21733;-78
2021/12/01 14:02:01;;;;;;;11.90;9.48;;;;;;;2.86;87.18;98663.52;1780711;79;21269;-77
2021/12/01 14:05:09;;;;;;;14.50;9.85;;;;;;;2.84;86.92;98663.70;1772260;79;21941;-83
2021/12/01 14:08:34;;;;;;;16.65;10.55;;;;;;;2.86;86.90;98673.81;1777705;79;21275;-77
2021/12/01 14:11:43;;;;;;;15.08;10.72;;;;;;;2.85;86.82;98676.70;1777529;79;21292;-78
2021/12/01 14:14:48;;;;;;;17.70;12.37;;;;;;;2.87;87.02;98677.36;1775991;79;21287;-84
2021/12/01 14:17:53;;;;;;;21.20;13.18;;;;;;;2.91;87.00;98684.96;1768294;79;21153;-84
2021/12/01 14:21:20;;;;;;;21.93;14.38;;;;;;;2.93;86.92;98682.11;1780038;79;21288;-80
2021/12/01 14:24:33;;;;;;;20.40;13.43;;;;;;;2.93;86.97;98684.81;1777696;79;21304;-84
2021/12/01 14:27:42;;;;;;;25.77;16.10;;;;;;;2.94;86.98;98681.09;1781917;79;21288;-84
2021/12/01 14:30:51;;;;;;;23.85;15.23;;;;;;;2.92;87.22;98688.02;1769669;79;21331;-84
2021/12/01 14:34:11;;;;;;;18.45;13.90;;;;;;;2.94;87.31;98690.55;1770793;81;21385;-84
2021/12/01 14:37:20;;;;;;;22.80;14.05;;;;;;;2.93;87.24;98699.16;1784632;79;21123;-79
2021/12/01 14:40:27;;;;;;;21.02;14.13;;;;;;;2.92;87.30;98700.69;1781706;79;21186;-78
2021/12/01 14:43:41;;;;;;;21.42;12.78;;;;;;;2.92;87.37;98700.69;1779923;79;21284;-84
2021/12/01 14:46:45;;;;;;;22.52;13.53;;;;;;;2.93;87.35;98704.56;1771157;81;21900;-83